Time;durP1;ratioP1;P1;durP2;ratioP2;P2;SDS_P1;SDS_P2;PMS_P1;PMS_P2;Temp;Humidity;BMP_temperature;BMP_pressure;BME280_temperature;BME280_humidity;BME280_pressure;Samples;Min_cycle;Max_cycle;Signal;HPM_P1;HPM_P2
2022/01/01 00:02:08;;;;;;;12.10;8.93;;;;;;;;;;5054733;28;20432;-91
2022/01/01 00:04:35;;;;;;;10.83;9.23;;;;;;;;;;5054207;28;20454;-90
2022/01/01 00:07:02;;;;;;;16.00;9.80;;;;;;;;;;5070154;22;20794;-92
2022/01/01 00:09:33;;;;;;;14.53;10.43;;;;;;;;;;5079187;28;20439;-92
2022/01/01 00:12:04;;;;;;;13.77;11.10;;;;;;;;;;5065078;28;20935;-90
2022/01/01 00:14:32;;;;;;;13.60;10.10;;;;;;;;;;5078542;28;20459;-89
2022/01/01 00:16:59;;;;;;;14.90;10.97;;;;;;;;;;5078906;28;20459;-88
2022/01/01 00:19:27;;;;;;;13.23;10.73;;;;;;;;;;5075261;28;20482;-89
2022/01/01 00:21:54;;;;;;;13.90;10.00;;;;;;;;;;5075984;28;20426;-89
2022/01/01 00:24:21;;;;;;;12.60;10.83;;;;;;;;;;5074152;28;20446;-88
2022/01/01 00:26:49;;;;;;;16.33;11.57;;;;;;;;;;5077568;28;20450;-87
2022/01/01 00:29:20;;;;;;;16.90;10.30;;;;;;;;;;5078222;28;20454;-87
2022/01/01 00:31:48;;;;;;;14.53;10.30;;;;;;;;;;5072771;28;20455;-89
2022/01/01 00:34:16;;;;;;;13.93;9.60;;;;;;;;;;5057845;28;20475;-92
2022/01/01 00:36:43;;;;;;;15.10;11.17;;;;;;;;;;5053424;28;20485;-91
2022/01/01 00:39:10;;;;;;;14.70;9.50;;;;;;;;;;5053534;28;20437;-88
2022/01/01 00:41:45;;;;;;;15.77;12.80;;;;;;;;;;5047916;28;20440;-90
2022/01/01 00:44:12;;;;;;;13.27;9.50;;;;;;;;;;5053738;28;20453;-91
2022/01/01 00:46:40;;;;;;;13.73;9.63;;;8.50;99.90;;;;;;5052232;28;20452;-93
2022/01/01 00:49:10;;;;;;;16.60;10.13;;;8.40;99.90;;;;;;5051619;28;20502;-92
2022/01/01 00:51:37;;;;;;;14.10;9.33;;;;;;;;;;5053028;28;20443;-91
2022/01/01 00:54:04;;;;;;;15.77;11.83;;;;;;;;;;5057057;28;20443;-91
2022/01/01 00:56:32;;;;;;;18.63;12.80;;;;;;;;;;5045055;28;20440;-89
2022/01/01 00:59:00;;;;;;;16.60;12.20;;;;;;;;;;5056880;28;20440;-92
2022/01/01 01:01:27;;;;;;;29.10;19.93;;;;;;;;;;5054159;28;20495;-92
2022/01/01 01:03:57;;;;;;;22.20;16.30;;;8.10;99.90;;;;;;5053672;28;20451;-90
2022/01/01 01:06:24;;;;;;;18.13;11.07;;;;;;;;;;5053425;28;20927;-89
2022/01/01 01:08:53;;;;;;;16.53;12.47;;;8.00;99.90;;;;;;5045352;28;21001;-91
2022/01/01 01:11:21;;;;;;;16.10;11.20;;;;;;;;;;5054464;28;20962;-90
2022/01/01 01:13:56;;;;;;;16.67;11.60;;;;;;;;;;5029232;28;20470;-91
2022/01/01 01:16:26;;;;;;;14.53;10.70;;;8.20;99.90;;;;;;5016997;28;20454;-88
2022/01/01 01:18:57;;;;;;;12.97;10.00;;;8.20;99.90;;;;;;4966590;28;20458;-91
2022/01/01 01:21:28;;;;;;;15.37;11.10;;;8.20;99.90;;;;;;5013254;28;20618;-91
2022/01/01 01:23:56;;;;;;;16.60;12.70;;;;;;;;;;5017578;28;20453;-89
2022/01/01 01:26:27;;;;;;;17.30;12.73;;;;;;;;;;5011399;28;20458;-88
2022/01/01 01:29:03;;;;;;;16.50;11.50;;;;;;;;;;5012458;28;20445;-88
2022/01/01 01:31:31;;;;;;;16.17;11.00;;;;;;;;;;5013197;28;20997;-90
2022/01/01 01:34:14;;;;;;;14.27;10.90;;;8.20;99.90;;;;;;5013019;28;20497;-88
2022/01/01 01:36:46;;;;;;;15.67;11.43;;;;;;;;;;5013657;28;20877;-89
2022/01/01 01:39:16;;;;;;;18.90;11.10;;;;;;;;;;5012320;28;20474;-90
2022/01/01 01:41:44;;;;;;;16.10;11.97;;;;;;;;;;5014516;28;21313;-90
2022/01/01 01:44:30;;;;;;;19.30;14.33;;;8.30;99.90;;;;;;5012131;28;20449;-87
2022/01/01 01:47:02;;;;;;;18.50;15.63;;;;;;;;;;5009251;28;20487;-89
2022/01/01 01:49:32;;;;;;;19.60;14.23;;;8.20;99.90;;;;;;5010004;28;20529;-91
2022/01/01 01:52:01;;;;;;;17.10;12.70;;;;;;;;;;5012744;28;20437;-89
2022/01/01 01:54:28;;;;;;;15.60;11.57;;;;;;;;;;5015428;28;20440;-89
2022/01/01 01:56:56;;;;;;;14.97;11.40;;;;;;;;;;5011247;28;20458;-88
2022/01/01 01:59:26;;;;;;;16.90;12.50;;;;;;;;;;5015013;28;20806;-89
2022/01/01 02:02:03;;;;;;;14.93;10.57;;;8.00;99.90;;;;;;5012881;28;20494;-88
2022/01/01 02:04:40;;;;;;;15.20;11.17;;;;;;;;;;5015078;28;20453;-89
2022/01/01 02:07:08;;;;;;;14.23;10.47;;;8.00;99.90;;;;;;5014603;28;20473;-89
2022/01/01 02:09:36;;;;;;;15.83;11.70;;;;;;;;;;5012226;28;20444;-89
2022/01/01 02:12:04;;;;;;;19.00;12.30;;;;;;;;;;5011738;28;20444;-91
2022/01/01 02:14:48;;;;;;;19.23;12.30;;;;;;;;;;5015054;28;20502;-91
2022/01/01 02:17:15;;;;;;;19.10;12.43;;;;;;;;;;5015450;28;21022;-90
2022/01/01 02:19:51;;;;;;;18.53;12.50;;;8.10;99.90;;;;;;5015793;28;20447;-88
2022/01/01 02:22:20;;;;;;;15.63;12.60;;;8.00;99.90;;;;;;5013758;28;20447;-90
2022/01/01 02:24:47;;;;;;;17.00;12.30;;;;;;;;;;5015548;28;20974;-88
2022/01/01 02:27:14;;;;;;;18.87;15.13;;;;;;;;;;5015219;28;20444;-89
2022/01/01 02:29:42;;;;;;;22.70;13.20;;;;;;;;;;5015538;28;20462;-89
2022/01/01 02:32:11;;;;;;;19.97;12.93;;;8.00;99.90;;;;;;5015503;28;20454;-88
2022/01/01 02:34:38;;;;;;;20.87;13.77;;;;;;;;;;5015125;28;20463;-91
2022/01/01 02:37:06;;;;;;;21.80;14.27;;;;;;;;;;5012193;28;20440;-91
2022/01/01 02:39:34;;;;;;;19.90;14.00;;;7.90;99.90;;;;;;5012216;28;20813;-90
2022/01/01 02:42:01;;;;;;;18.10;14.00;;;;;;;;;;5014637;28;20482;-93
2022/01/01 02:44:29;;;;;;;13.30;11.67;;;7.90;99.90;;;;;;5015262;28;20455;-88
2022/01/01 02:46:56;;;;;;;25.67;13.80;;;;;;;;;;5012131;28;20426;-91
2022/01/01 02:49:23;;;;;;;15.90;12.73;;;;;;;;;;5012558;28;20436;-92
2022/01/01 02:51:51;;;;;;;19.33;13.20;;;;;;;;;;5012253;28;21026;-91
2022/01/01 02:54:18;;;;;;;16.90;12.30;;;;;;;;;;5011222;28;20447;-88
2022/01/01 02:56:48;;;;;;;19.57;12.97;;;7.50;99.90;;;;;;5014114;28;20448;-89
2022/01/01 02:59:15;;;;;;;18.80;12.20;;;;;;;;;;5012280;28;20459;-89
2022/01/01 03:01:43;;;;;;;16.57;11.97;;;;;;;;;;5014875;28;20493;-88
2022/01/01 03:04:10;;;;;;;16.70;12.13;;;;;;;;;;5015363;28;20451;-88
2022/01/01 03:06:37;;;;;;;16.60;12.60;;;;;;;;;;5015362;28;20467;-90
2022/01/01 03:09:04;;;;;;;17.60;12.33;;;;;;;;;;5007370;28;21012;-89
2022/01/01 03:11:31;;;;;;;18.30;13.20;;;;;;;;;;5015383;28;20958;-89
2022/01/01 03:14:00;;;;;;;12.10;10.33;;;;;;;;;;5020143;28;20532;-88
2022/01/01 03:16:27;;;;;;;14.57;11.53;;;;;;;;;;5016091;28;20455;-92
2022/01/01 03:18:54;;;;;;;11.37;9.63;;;;;;;;;;5014916;28;20456;-88
2022/01/01 03:21:21;;;;;;;17.00;10.90;;;;;;;;;;5014672;28;20501;-89
2022/01/01 03:23:49;;;;;;;16.13;12.37;;;;;;;;;;5014785;28;20454;-91
2022/01/01 03:26:16;;;;;;;10.43;8.27;;;;;;;;;;5014399;28;20455;-89
2022/01/01 03:28:43;;;;;;;8.50;6.53;;;;;;;;;;5014766;28;20455;-89
2022/01/01 03:31:11;;;;;;;5.60;4.47;;;8.70;99.90;;;;;;5011684;28;20858;-91
2022/01/01 03:33:38;;;;;;;7.33;5.30;;;;;;;;;;5014802;28;20450;-91
2022/01/01 03:36:05;;;;;;;7.97;5.70;;;;;;;;;;5011065;28;20527;-89
2022/01/01 03:38:33;;;;;;;6.40;5.37;;;;;;;;;;5017214;28;20439;-91
2022/01/01 03:41:00;;;;;;;6.30;4.80;;;;;;;;;;5015271;28;20513;-91
2022/01/01 03:43:27;;;;;;;6.20;4.90;;;;;;;;;;5012866;28;20457;-88
2022/01/01 03:45:54;;;;;;;6.63;4.57;;;;;;;;;;5016116;28;20456;-89
2022/01/01 03:48:23;;;;;;;7.17;4.60;;;9.30;99.90;;;;;;5015442;28;20909;-90
2022/01/01 03:50:50;;;;;;;5.70;4.53;;;;;;;;;;5011047;28;20452;-89
2022/01/01 03:53:17;;;;;;;6.00;3.73;;;;;;;;;;5014162;28;20972;-89
2022/01/01 03:55:44;;;;;;;2.60;1.50;;;;;;;;;;5013175;28;20585;-89
2022/01/01 03:58:12;;;;;;;3.30;2.60;;;;;;;;;;5014178;28;20447;-91
2022/01/01 04:00:40;;;;;;;4.77;3.40;;;;;;;;;;5014015;28;20487;-90
2022/01/01 04:03:09;;;;;;;7.83;3.60;;;9.60;99.90;;;;;;5014077;28;20463;-89
2022/01/01 04:05:40;;;;;;;6.27;4.00;;;9.80;99.90;;;;;;5003777;28;20868;-90
2022/01/01 04:08:08;;;;;;;5.57;3.57;;;9.60;99.90;;;;;;5013787;28;20477;-90
2022/01/01 04:10:35;;;;;;;3.80;3.20;;;;;;;;;;5013458;28;20465;-89
2022/01/01 04:13:03;;;;;;;5.07;3.53;;;9.60;99.90;;;;;;5013971;28;20454;-92
2022/01/01 04:15:32;;;;;;;4.00;2.70;;;9.70;99.90;;;;;;5010738;28;20439;-90
2022/01/01 04:18:02;;;;;;;4.70;3.33;;;9.70;99.90;;;;;;5007342;28;20509;-90
2022/01/01 04:20:29;;;;;;;4.43;3.20;;;;;;;;;;5015317;28;20955;-90
2022/01/01 04:22:59;;;;;;;3.37;2.93;;;9.70;99.90;;;;;;5017981;28;20451;-91
2022/01/01 04:25:27;;;;;;;4.80;3.73;;;9.70;99.90;;;;;;5014245;28;20451;-88
2022/01/01 04:27:56;;;;;;;4.93;3.73;;;9.70;99.90;;;;;;5017760;28;20541;-89
2022/01/01 04:30:25;;;;;;;6.87;5.70;;;;;;;;;;5017684;28;20483;-89
2022/01/01 04:32:52;;;;;;;5.47;4.77;;;;;;;;;;5014911;28;20539;-89
2022/01/01 04:35:19;;;;;;;5.77;4.27;;;;;;;;;;5017339;28;20460;-90
2022/01/01 04:37:46;;;;;;;5.00;4.50;;;;;;;;;;5014555;28;20442;-90
2022/01/01 04:40:15;;;;;;;5.07;4.00;;;9.50;99.90;;;;;;5016876;28;20803;-90
2022/01/01 04:42:43;;;;;;;7.87;4.30;;;;;;;;;;5017209;28;20861;-90
2022/01/01 04:45:11;;;;;;;4.97;4.00;;;9.70;99.90;;;;;;5017777;28;20495;-90
2022/01/01 04:47:38;;;;;;;4.87;4.07;;;;;;;;;;5017587;28;20458;-91
2022/01/01 04:50:06;;;;;;;7.73;3.77;;;9.50;99.90;;;;;;5012207;28;20566;-89
2022/01/01 04:52:34;;;;;;;6.97;4.70;;;;;;;;;;5017940;28;20450;-90
2022/01/01 04:55:01;;;;;;;5.93;3.90;;;;;;;;;;5016878;28;20453;-90
2022/01/01 04:57:30;;;;;;;8.13;5.20;;;8.90;99.90;;;;;;5014964;28;20452;-91
2022/01/01 04:59:57;;;;;;;9.00;3.80;;;;;;;;;;5017584;28;20473;-89
2022/01/01 05:02:26;;;;;;;5.97;4.23;;;;;;;;;;5017497;28;20501;-89
2022/01/01 05:04:53;;;;;;;5.90;3.90;;;;;;;;;;5017285;28;20485;-89
2022/01/01 05:07:20;;;;;;;4.87;3.20;;;;;;;;;;5017597;28;20512;-88
2022/01/01 05:09:47;;;;;;;6.33;4.50;;;;;;;;;;5014984;28;20441;-90
2022/01/01 05:12:15;;;;;;;3.10;2.60;;;;;;;;;;5014450;28;20454;-90
2022/01/01 05:14:43;;;;;;;6.67;4.67;;;8.40;99.90;;;;;;5018229;28;20472;-91
2022/01/01 05:17:12;;;;;;;6.90;4.00;;;;;;;;;;5019383;28;20455;-90
2022/01/01 05:19:39;;;;;;;6.10;5.00;;;;;;;;;;5014707;28;20455;-90
2022/01/01 05:22:06;;;;;;;5.10;4.30;;;;;;;;;;5013905;28;20542;-91
2022/01/01 05:24:33;;;;;;;5.30;2.90;;;;;;;;;;5017097;28;20456;-92
2022/01/01 05:27:01;;;;;;;5.73;4.43;;;;;;;;;;5013429;28;20819;-88
2022/01/01 05:29:28;;;;;;;8.63;4.20;;;;;;;;;;5017194;28;20905;-90
2022/01/01 05:31:56;;;;;;;4.57;3.80;;;8.10;99.90;;;;;;5016547;28;20453;-92
2022/01/01 05:34:23;;;;;;;5.53;4.43;;;;;;;;;;5016981;28;20445;-90
2022/01/01 05:36:51;;;;;;;6.17;4.00;;;;;;;;;;5013758;28;20442;-91
2022/01/01 05:39:18;;;;;;;5.63;4.20;;;;;;;;;;5017062;28;20445;-90
2022/01/01 05:41:45;;;;;;;6.00;3.83;;;;;;;;;;5015635;28;20493;-90
2022/01/01 05:44:12;;;;;;;4.80;3.53;;;;;;;;;;5016488;28;20441;-89
2022/01/01 05:46:40;;;;;;;4.93;3.60;;;;;;;;;;5011963;28;20513;-90
2022/01/01 05:49:08;;;;;;;5.07;4.20;;;7.80;99.90;;;;;;5013003;28;20446;-88
2022/01/01 05:51:35;;;;;;;4.73;3.13;;;;;;;;;;5032050;28;20449;-90
2022/01/01 05:54:03;;;;;;;4.17;3.33;;;;;;;;;;5036609;28;20464;-88
2022/01/01 05:56:29;;;;;;;5.87;3.67;;;7.90;99.90;;;;;;5012844;28;20453;-90
2022/01/01 05:58:57;;;;;;;5.27;3.63;;;;;;;;;;5012056;28;20450;-89
2022/01/01 06:01:24;;;;;;;5.00;3.50;;;;;;;;;;5015975;28;20492;-90
2022/01/01 06:03:51;;;;;;;6.10;4.50;;;;;;;;;;5015926;28;20446;-90
2022/01/01 06:06:20;;;;;;;5.20;4.07;;;7.90;99.90;;;;;;5012798;28;20457;-88
2022/01/01 06:08:47;;;;;;;5.67;4.10;;;;;;;;;;5011489;28;20486;-88
2022/01/01 06:11:14;;;;;;;5.20;3.83;;;;;;;;;;5014835;28;20472;-90
2022/01/01 06:13:41;;;;;;;5.00;3.97;;;;;;;;;;5012688;28;20457;-91
2022/01/01 06:16:08;;;;;;;2.07;1.47;;;;;;;;;;5015692;28;20460;-90
2022/01/01 06:18:36;;;;;;;5.43;3.80;;;;;;;;;;5016731;28;20450;-90
2022/01/01 06:21:04;;;;;;;4.90;3.27;;;;;;;;;;5016772;28;20448;-90
2022/01/01 06:23:36;;;;;;;4.40;3.80;;;8.40;99.90;;;;;;5011358;28;20460;-90
2022/01/01 06:26:04;;;;;;;6.30;4.50;;;;;;;;;;5015033;28;20485;-89
2022/01/01 06:28:32;;;;;;;4.20;3.70;;;8.60;99.90;;;;;;5012541;28;20454;-90
2022/01/01 06:30:59;;;;;;;6.07;4.73;;;;;;;;;;5012239;28;20440;-90
2022/01/01 06:33:26;;;;;;;4.90;3.47;;;;;;;;;;5015476;28;20921;-89
2022/01/01 06:35:55;;;;;;;4.40;2.50;;;8.40;99.90;;;;;;5015712;28;20453;-90
2022/01/01 06:38:22;;;;;;;4.57;3.33;;;;;;;;;;5011617;28;20451;-91
2022/01/01 06:40:51;;;;;;;3.50;2.93;;;8.40;99.90;;;;;;5014884;28;20453;-90
2022/01/01 06:43:18;;;;;;;5.30;3.73;;;;;;;;;;5014810;28;20492;-90
2022/01/01 06:45:45;;;;;;;6.30;3.60;;;;;;;;;;5012713;28;20467;-89
2022/01/01 06:48:13;;;;;;;5.23;3.33;;;;;;;;;;5015560;28;20453;-89
2022/01/01 06:50:40;;;;;;;4.43;3.97;;;;;;;;;;5017133;28;20445;-88
2022/01/01 06:53:07;;;;;;;3.90;3.27;;;;;;;;;;5014603;28;20464;-89
2022/01/01 06:55:34;;;;;;;5.20;3.50;;;;;;;;;;5016208;28;20540;-90
2022/01/01 06:58:03;;;;;;;9.57;3.97;;;8.50;99.90;;;;;;5018034;28;20457;-89
2022/01/01 07:00:30;;;;;;;5.70;3.40;;;;;;;;;;5014801;28;20458;-90
2022/01/01 07:02:57;;;;;;;5.47;3.50;;;;;;;;;;5007407;28;20896;-90
2022/01/01 07:05:24;;;;;;;11.30;4.07;;;;;;;;;;5015002;28;20980;-89
2022/01/01 07:07:51;;;;;;;4.30;3.23;;;;;;;;;;5010771;28;20473;-91
2022/01/01 07:10:19;;;;;;;5.00;2.47;;;;;;;;;;5011374;28;20440;-89
2022/01/01 07:12:46;;;;;;;5.47;3.70;;;;;;;;;;5014993;28;20458;-89
2022/01/01 07:15:15;;;;;;;4.43;2.80;;;8.40;99.90;;;;;;5015106;28;20456;-91
2022/01/01 07:17:42;;;;;;;4.90;3.00;;;;;;;;;;4916586;29;20474;-89
2022/01/01 07:20:11;;;;;;;5.83;3.50;;;8.60;99.90;;;;;;4916321;29;20461;-90
2022/01/01 07:22:41;;;;;;;5.23;4.13;;;8.40;99.90;;;;;;4916225;29;20508;-89
2022/01/01 07:25:09;;;;;;;5.17;3.20;;;8.50;99.90;;;;;;4912731;29;20986;-90
2022/01/01 07:27:36;;;;;;;6.73;3.20;;;;;;;;;;4913761;29;20454;-87
2022/01/01 07:30:04;;;;;;;3.43;3.10;;;8.30;99.90;;;;;;4916242;29;20451;-90
2022/01/01 07:32:33;;;;;;;5.20;3.40;;;8.90;99.90;;;;;;4913276;29;20457;-89
2022/01/01 07:35:00;;;;;;;4.40;3.70;;;;;;;;;;4921416;28;20457;-89
2022/01/01 07:37:27;;;;;;;3.60;2.97;;;;;;;;;;5014309;28;20528;-90
2022/01/01 07:39:54;;;;;;;6.30;3.23;;;;;;;;;;5014074;28;20454;-89
2022/01/01 07:42:22;;;;;;;3.93;2.60;;;;;;;;;;5013647;28;20481;-88
2022/01/01 07:44:49;;;;;;;3.83;2.87;;;;;;;;;;5010336;28;20454;-90
2022/01/01 07:47:17;;;;;;;4.10;3.20;;;;;;;;;;5010688;28;20954;-90
2022/01/01 07:49:45;;;;;;;3.43;2.67;;;;;;;;;;5013573;28;20442;-90
2022/01/01 07:52:16;;;;;;;8.13;3.17;;;;;;;;;;5008761;28;20461;-89
2022/01/01 07:54:43;;;;;;;3.10;2.70;;;;;;;;;;5008483;28;20512;-91
2022/01/01 07:57:13;;;;;;;2.40;2.20;;;;;;;;;;5013051;28;20445;-92
2022/01/01 07:59:40;;;;;;;3.77;2.40;;;;;;;;;;5008665;28;20514;-90
2022/01/01 08:02:11;;;;;;;3.13;2.60;;;;;;;;;;5013794;28;20490;-90
2022/01/01 08:04:41;;;;;;;2.80;1.73;;;;;;;;;;5008143;28;20461;-89
2022/01/01 08:07:09;;;;;;;3.47;2.50;;;9.50;99.90;;;;;;5013292;28;20511;-89
2022/01/01 08:09:38;;;;;;;4.00;3.10;;;9.20;99.90;;;;;;5007999;28;20454;-92
2022/01/01 08:12:10;;;;;;;4.10;3.03;;;9.20;99.90;;;;;;5008478;28;21085;-92
2022/01/01 08:14:37;;;;;;;4.50;2.97;;;;;;;;;;5014108;28;20950;-92
2022/01/01 08:17:07;;;;;;;3.90;2.77;;;9.10;99.90;;;;;;5014785;28;20904;-91
2022/01/01 08:19:38;;;;;;;7.40;5.17;;;;;;;;;;5010366;28;20457;-91
2022/01/01 08:22:05;;;;;;;13.03;8.83;;;;;;;;;;5011315;28;20482;-90
2022/01/01 08:24:33;;;;;;;4.77;3.90;;;9.30;99.90;;;;;;5015469;28;20554;-92
2022/01/01 08:27:01;;;;;;;10.10;6.47;;;;;;;;;;5016103;28;20458;-91
2022/01/01 08:29:29;;;;;;;2.60;2.30;;;;;;;;;;5024080;28;20448;-93
2022/01/01 08:31:57;;;;;;;3.83;3.07;;;;;;;;;;5036751;28;20455;-91
2022/01/01 08:34:31;;;;;;;5.63;3.50;;;9.90;99.90;;;;;;5011869;28;20451;-92
2022/01/01 08:36:59;;;;;;;3.73;2.20;;;;;;;;;;5016105;28;20459;-90
2022/01/01 08:39:27;;;;;;;3.30;3.00;;;;;;;;;;5008190;28;20455;-91
2022/01/01 08:41:57;;;;;;;3.63;2.53;;;;;;;;;;5012127;28;20957;-93
2022/01/01 08:44:25;;;;;;;4.70;3.10;;;;;;;;;;5014760;28;20444;-91
2022/01/01 08:46:53;;;;;;;4.43;2.90;;;;;;;;;;5014564;28;20452;-90
2022/01/01 08:49:21;;;;;;;3.60;2.87;;;;;;;;;;5010113;28;20440;-91
2022/01/01 08:51:48;;;;;;;3.40;1.90;;;;;;;;;;5009863;28;20443;-92
2022/01/01 08:54:16;;;;;;;3.73;2.87;;;;;;;;;;5011223;28;20542;-93
2022/01/01 08:56:52;;;;;;;3.40;2.50;;;11.30;99.90;;;;;;5014843;28;20452;-93
2022/01/01 08:59:20;;;;;;;3.13;2.50;;;11.30;99.90;;;;;;5009390;28;20441;-92
2022/01/01 09:01:48;;;;;;;5.60;2.73;;;;;;;;;;5016237;28;20457;-94
2022/01/01 09:04:15;;;;;;;4.97;3.17;;;;;;;;;;5015170;28;20509;-93
2022/01/01 09:06:42;;;;;;;4.40;3.23;;;;;;;;;;5013232;28;20918;-93
2022/01/01 09:09:11;;;;;;;5.03;3.90;;;12.10;99.90;;;;;;5017859;28;20969;-91
2022/01/01 09:11:38;;;;;;;4.10;2.60;;;;;;;;;;5011035;28;20588;-93
2022/01/01 09:14:05;;;;;;;4.13;3.30;;;;;;;;;;5014065;28;20531;-91
2022/01/01 09:16:34;;;;;;;4.27;2.73;;;;;;;;;;5022163;28;20461;-92
2022/01/01 09:19:02;;;;;;;3.40;2.57;;;;;;;;;;5019143;28;20463;-93
2022/01/01 09:21:29;;;;;;;3.20;2.10;;;;;;;;;;5018557;28;20542;-91
2022/01/01 09:23:56;;;;;;;2.00;1.80;;;;;;;;;;5019788;28;20975;-94
2022/01/01 09:26:26;;;;;;;3.63;2.90;;;12.50;99.90;;;;;;5018062;28;20439;-93
2022/01/01 09:28:53;;;;;;;2.73;2.40;;;;;;;;;;5013485;28;20517;-91
2022/01/01 09:31:20;;;;;;;3.00;2.30;;;;;;;;;;5017357;28;20449;-91
2022/01/01 09:33:49;;;;;;;3.10;2.63;;;;;;;;;;5017410;28;20459;-90
2022/01/01 09:36:17;;;;;;;7.23;5.60;;;;;;;;;;5018134;28;20947;-89
2022/01/01 09:38:45;;;;;;;5.33;4.80;;;;;;;;;;5000829;28;20456;-89
2022/01/01 09:41:15;;;;;;;4.47;2.20;;;13.50;99.90;;;;;;5016775;28;20451;-91
2022/01/01 09:43:43;;;;;;;2.93;2.20;;;13.80;99.90;;;;;;5016985;28;20486;-94
2022/01/01 09:46:13;;;;;;;2.60;1.93;;;;;;;;;;5020421;28;20466;-95
2022/01/01 09:48:42;;;;;;;3.90;3.17;;;;;;;;;;5021517;28;20463;-95
2022/01/01 09:51:10;;;;;;;4.67;2.40;;;;;;;;;;5023459;28;20443;-93
2022/01/01 09:53:41;;;;;;;2.80;2.27;;;;;;;;;;5026554;28;20519;-96
2022/01/01 09:56:10;;;;;;;3.30;2.30;;;;;;;;;;5018082;28;20466;-93
2022/01/01 09:58:42;;;;;;;2.67;2.23;;;16.10;99.90;;;;;;5023136;28;20514;-92
2022/01/01 10:01:09;;;;;;;3.00;2.70;;;;;;;;;;5021278;28;20453;-92
2022/01/01 10:03:37;;;;;;;5.80;2.93;;;15.60;99.90;;;;;;5018389;28;20503;-92
2022/01/01 10:06:06;;;;;;;3.60;2.67;;;15.90;99.90;;;;;;5025881;28;20461;-92
2022/01/01 10:08:37;;;;;;;3.13;2.80;;;16.30;99.90;;;;;;5029571;28;20483;-93
2022/01/01 10:11:04;;;;;;;2.60;2.40;;;;;;;;;;5026145;28;20429;-92
2022/01/01 10:13:33;;;;;;;2.13;1.93;;;16.80;99.90;;;;;;5036385;28;20498;-93
2022/01/01 10:16:02;;;;;;;3.17;2.10;;;16.80;99.90;;;;;;5022098;28;20475;-94
2022/01/01 10:18:30;;;;;;;6.07;5.47;;;;;;;;;;5014104;28;20449;-95
2022/01/01 10:20:58;;;;;;;8.70;4.93;;;;;;;;;;5014508;28;20630;-93
2022/01/01 10:23:27;;;;;;;2.67;2.47;;;;;;;;;;5019993;28;20467;-93
2022/01/01 10:28:55;;;;;;;2.63;2.43;;;17.40;99.90;;;;;;5016214;28;20804;-93
2022/01/01 10:31:23;;;;;;;2.47;1.83;;;;;;;;;;5012438;28;20461;-93
2022/01/01 10:33:51;;;;;;;2.30;1.80;;;;;;;;;;5016796;28;20498;-92
2022/01/01 10:36:21;;;;;;;2.23;2.03;;;17.50;99.90;;;;;;5014696;28;20429;-92
2022/01/01 10:38:50;;;;;;;3.73;1.90;;;18.10;99.90;;;;;;5019110;28;20456;-91
2022/01/01 10:41:18;;;;;;;1.67;1.47;;;18.50;99.90;;;;;;5011458;28;20460;-91
2022/01/01 10:43:46;;;;;;;5.17;3.57;;;18.30;99.90;;;;;;5012960;28;20453;-93
2022/01/01 10:46:15;;;;;;;1.87;1.77;;;17.80;99.90;;;;;;5015957;28;20444;-91
2022/01/01 10:48:55;;;;;;;2.13;1.93;;;;;;;;;;5012472;28;20463;-91
2022/01/01 10:51:22;;;;;;;1.90;1.47;;;17.70;99.90;;;;;;5015716;28;20519;-93
2022/01/01 10:54:01;;;;;;;2.00;1.60;;;17.80;99.90;;;;;;5013061;28;20507;-93
2022/01/01 10:56:37;;;;;;;1.37;0.90;;;17.50;99.90;;;;;;5015290;28;20453;-90
2022/01/01 10:59:09;;;;;;;2.13;1.43;;;;;;;;;;5018373;28;20483;-92
2022/01/01 11:01:44;;;;;;;1.37;1.20;;;17.60;99.90;;;;;;5014142;28;20453;-91
2022/01/01 11:04:11;;;;;;;2.70;1.60;;;18.20;99.90;;;;;;5015817;28;20468;-94
2022/01/01 11:06:41;;;;;;;1.77;1.23;;;17.80;99.90;;;;;;5015581;28;20448;-91
2022/01/01 11:09:13;;;;;;;2.50;1.47;;;;;;;;;;5015594;28;20973;-92
2022/01/01 11:11:42;;;;;;;0.93;0.83;;;;;;;;;;5012423;28;20437;-91
2022/01/01 11:14:09;;;;;;;0.80;0.73;;;;;;;;;;5015597;28;20492;-92
2022/01/01 11:16:38;;;;;;;2.40;0.83;;;;;;;;;;5013881;28;20461;-91
2022/01/01 11:19:05;;;;;;;1.50;0.83;;;;;;;;;;5014952;28;20459;-92
2022/01/01 11:21:33;;;;;;;1.00;0.90;;;;;;;;;;5013105;28;20456;-93
2022/01/01 11:24:01;;;;;;;1.20;0.83;;;18.80;99.90;;;;;;5013254;28;20460;-91
2022/01/01 11:26:29;;;;;;;1.30;0.80;;;;;;;;;;5015949;28;20804;-92
2022/01/01 11:28:57;;;;;;;2.07;1.07;;;;;;;;;;5017308;28;20433;-92
2022/01/01 11:31:25;;;;;;;1.00;0.80;;;18.80;99.90;;;;;;5012553;28;20501;-93
2022/01/01 11:34:00;;;;;;;1.60;0.90;;;18.60;99.90;;;;;;5011939;28;20483;-93
2022/01/01 11:36:31;;;;;;;1.80;0.93;;;19.50;99.20;;;;;;5012865;28;20436;-89
2022/01/01 11:38:59;;;;;;;1.13;1.00;;;;;;;;;;5015570;28;20452;-95
2022/01/01 11:41:38;;;;;;;1.27;0.60;;;19.10;99.70;;;;;;5015392;28;20441;-92
2022/01/01 11:44:26;;;;;;;1.50;1.40;;;18.70;99.70;;;;;;5014955;28;20455;-94
2022/01/01 11:46:58;;;;;;;1.47;1.00;;;19.50;98.80;;;;;;5016636;28;20452;-93
2022/01/01 11:49:27;;;;;;;3.27;2.70;;;19.60;98.60;;;;;;5015288;28;20461;-95
2022/01/01 11:51:56;;;;;;;3.20;2.70;;;19.70;98.00;;;;;;5017458;28;20860;-95
2022/01/01 11:54:26;;;;;;;3.53;2.90;;;18.40;98.90;;;;;;5015702;28;20487;-94
2022/01/01 11:57:05;;;;;;;3.50;3.17;;;18.90;98.50;;;;;;5016671;28;20935;-93
2022/01/01 11:59:46;;;;;;;4.67;3.00;;;18.70;98.90;;;;;;5017654;28;20441;-94
2022/01/01 12:02:34;;;;;;;3.37;2.93;;;18.70;99.70;;;;;;5016312;28;20440;-93
2022/01/01 12:05:19;;;;;;;2.43;2.10;;;19.10;99.20;;;;;;5011715;28;20459;-90
2022/01/01 12:07:49;;;;;;;3.63;1.50;;;18.20;99.70;;;;;;4938527;29;20476;-92
2022/01/01 12:10:21;;;;;;;2.00;1.63;;;17.20;99.90;;;;;;4936910;29;21015;-92
2022/01/01 12:12:50;;;;;;;5.13;2.70;;;17.30;99.90;;;;;;4937492;29;20456;-93
2022/01/01 12:15:38;;;;;;;2.70;2.00;;;17.40;99.90;;;;;;4922615;29;20446;-93
2022/01/01 12:18:07;;;;;;;2.00;1.80;;;18.00;99.90;;;;;;4929418;29;20445;-92
2022/01/01 12:20:37;;;;;;;3.17;1.93;;;17.40;99.90;;;;;;4938938;29;20457;-92
2022/01/01 12:23:09;;;;;;;2.17;1.50;;;16.80;99.90;;;;;;4924256;29;20448;-90
2022/01/01 12:25:37;;;;;;;2.17;1.40;;;16.40;99.90;;;;;;4918371;29;20450;-91
2022/01/01 12:28:07;;;;;;;1.57;1.33;;;16.10;99.90;;;;;;4922121;29;21015;-91
2022/01/01 12:30:51;;;;;;;1.77;1.53;;;16.00;99.90;;;;;;4926729;29;20464;-90
2022/01/01 12:33:26;;;;;;;1.80;1.30;;;16.10;99.90;;;;;;4983252;28;20556;-91
2022/01/01 12:35:55;;;;;;;2.40;1.57;;;16.40;99.90;;;;;;4987916;28;20475;-92
2022/01/01 12:38:25;;;;;;;1.70;1.43;;;16.10;99.90;;;;;;4989492;28;20979;-92
2022/01/01 12:41:07;;;;;;;2.33;1.33;;;15.90;99.90;;;;;;4992871;28;20465;-93
2022/01/01 12:43:42;;;;;;;1.70;1.50;;;15.70;99.90;;;;;;4997649;28;20456;-94
2022/01/01 12:46:13;;;;;;;1.63;1.13;;;15.60;99.90;;;;;;5014394;28;20439;-92
2022/01/01 12:48:41;;;;;;;2.53;1.37;;;15.70;99.90;;;;;;5013820;28;20454;-95
2022/01/01 12:51:10;;;;;;;3.17;2.03;;;15.70;99.90;;;;;;5016712;28;21023;-93
2022/01/01 12:53:39;;;;;;;4.93;3.50;;;15.80;99.90;;;;;;5017731;28;20494;-89
2022/01/01 12:56:10;;;;;;;1.60;1.20;;;15.90;99.90;;;;;;5016937;28;20962;-91
2022/01/01 12:58:40;;;;;;;3.37;2.47;;;15.70;99.90;;;;;;4963387;28;20469;-91
2022/01/01 13:01:23;;;;;;;2.27;1.80;;;15.60;99.90;;;;;;5019620;28;20459;-90
2022/01/01 13:03:52;;;;;;;2.53;1.80;;;16.00;99.90;;;;;;5019729;28;20474;-91
2022/01/01 13:06:27;;;;;;;2.23;1.47;;;16.90;99.90;;;;;;5012848;28;20442;-91
2022/01/01 13:08:55;;;;;;;2.87;2.00;;;16.80;99.90;;;;;;5021390;28;20489;-94
2022/01/01 13:11:24;;;;;;;2.20;1.60;;;15.20;99.90;;;;;;5022570;28;20962;-93
2022/01/01 13:13:52;;;;;;;3.43;1.83;;;17.10;99.90;;;;;;5021961;28;20508;-92
2022/01/01 13:16:21;;;;;;;1.63;1.30;;;17.00;99.90;;;;;;5020413;28;20459;-91
2022/01/01 13:18:48;;;;;;;1.93;1.63;;;;;;;;;;5014760;28;20454;-90
2022/01/01 13:21:15;;;;;;;2.87;2.30;;;;;;;;;;5022403;28;20446;-93
2022/01/01 13:23:42;;;;;;;3.33;2.47;;;;;;;;;;5020601;28;20444;-93
2022/01/01 13:26:10;;;;;;;2.63;1.60;;;;;;;;;;5026268;28;20946;-90
2022/01/01 13:28:37;;;;;;;3.83;3.00;;;;;;;;;;5030710;28;20457;-89
2022/01/01 13:31:06;;;;;;;4.00;3.60;;;16.70;99.90;;;;;;5021181;28;20466;-91
2022/01/01 13:33:39;;;;;;;3.80;3.13;;;16.60;99.90;;;;;;5016148;28;20520;-93
2022/01/01 13:36:06;;;;;;;5.90;4.10;;;16.80;99.90;;;;;;5017224;28;20446;-90
2022/01/01 13:38:36;;;;;;;4.17;3.77;;;16.70;99.90;;;;;;5016993;28;20439;-93
2022/01/01 13:41:06;;;;;;;5.10;4.20;;;16.60;99.90;;;;;;5010516;28;20436;-92
2022/01/01 13:43:35;;;;;;;7.67;4.23;;;16.30;99.90;;;;;;5013721;28;20524;-92
2022/01/01 13:46:12;;;;;;;5.80;5.20;;;16.40;99.90;;;;;;5016797;28;20459;-91
2022/01/01 13:48:45;;;;;;;8.03;5.63;;;15.80;99.90;;;;;;5016191;28;20463;-89
2022/01/01 13:51:14;;;;;;;6.27;5.10;;;;;;;;;;5015781;28;20450;-90
2022/01/01 13:53:43;;;;;;;6.20;4.93;;;;;;;;;;5010666;28;20531;-89
2022/01/01 13:58:53;;;;;;;7.17;5.77;;;;;;;;;;5015612;28;20434;-92
2022/01/01 14:01:20;;;;;;;5.90;5.30;;;;;;;;;;5016050;28;20459;-91
2022/01/01 14:03:49;;;;;;;6.40;5.27;;;;;;;;;;5016673;28;20455;-93
2022/01/01 14:06:30;;;;;;;5.90;5.30;;;15.00;99.90;;;;;;5016760;28;20444;-93
2022/01/01 14:09:01;;;;;;;7.17;5.60;;;14.90;99.90;;;;;;5016533;28;20483;-93